createdAt,value
2023-05-21T00:00:00.065Z,5.20
2023-05-21T00:01:32.767Z,4.97
2023-05-21T00:03:05.090Z,4.90
2023-05-21T00:04:37.304Z,4.78
2023-05-21T00:06:09.518Z,4.82
2023-05-21T00:07:41.852Z,4.45
2023-05-21T00:09:14.185Z,4.78
2023-05-21T00:10:46.571Z,4.93
2023-05-21T00:12:18.694Z,4.82
2023-05-21T00:13:50.988Z,4.88
2023-05-21T00:15:23.116Z,5.07
2023-05-21T00:16:55.283Z,5.13
2023-05-21T00:18:27.495Z,5.00
2023-05-21T00:20:00.465Z,5.47
2023-05-21T00:21:32.764Z,4.90
2023-05-21T00:23:05.699Z,5.00
2023-05-21T00:24:37.843Z,4.93
2023-05-21T00:26:10.291Z,5.03
2023-05-21T00:29:14.474Z,4.68
2023-05-21T00:30:47.815Z,5.20
2023-05-21T00:33:51.947Z,4.63
2023-05-21T00:35:24.109Z,4.78
2023-05-21T00:36:56.225Z,5.00
2023-05-21T00:38:28.321Z,5.38
2023-05-21T00:40:05.694Z,4.70
2023-05-21T00:41:40.626Z,4.95
2023-05-21T00:43:14.784Z,5.15
2023-05-21T00:44:47.046Z,4.65
2023-05-21T00:46:21.968Z,4.50
2023-05-21T00:47:57.322Z,4.50
2023-05-21T00:49:29.763Z,4.43
2023-05-21T00:51:01.992Z,4.90
2023-05-21T00:52:42.203Z,4.85
2023-05-21T00:54:14.794Z,4.68
2023-05-21T00:55:47.253Z,4.10
2023-05-21T00:57:23.096Z,5.28
2023-05-21T00:58:57.613Z,4.60
2023-05-21T01:00:29.978Z,5.18
2023-05-21T01:02:06.471Z,4.80
2023-05-21T01:03:39.010Z,4.85
2023-05-21T01:05:11.478Z,4.50
2023-05-21T01:06:43.576Z,4.63
2023-05-21T01:08:15.782Z,4.55
2023-05-21T01:09:48.090Z,4.55
2023-05-21T01:11:22.005Z,4.70
2023-05-21T01:12:55.793Z,4.80
2023-05-21T01:14:28.009Z,4.75
2023-05-21T01:16:00.662Z,4.50
2023-05-21T01:17:34.652Z,4.97
2023-05-21T01:19:07.900Z,5.25
2023-05-21T01:20:40.715Z,4.88
2023-05-21T01:22:14.704Z,4.95
2023-05-21T01:23:46.853Z,4.53
2023-05-21T01:25:19.180Z,5.07
2023-05-21T01:26:51.349Z,5.10
2023-05-21T01:28:23.776Z,4.95
2023-05-21T01:29:56.331Z,5.30
2023-05-21T01:31:43.600Z,4.77
2023-05-21T01:33:37.782Z,4.82
2023-05-21T01:37:37.641Z,4.57
2023-05-21T01:39:39.577Z,4.13
2023-05-21T01:41:13.540Z,4.43
2023-05-21T01:42:46.305Z,5.30
2023-05-21T01:44:19.414Z,5.07
2023-05-21T01:45:55.379Z,5.25
2023-05-21T01:47:28.016Z,5.18
2023-05-21T01:49:00.389Z,4.82
2023-05-21T01:50:32.917Z,5.10
2023-05-21T01:52:05.584Z,4.77
2023-05-21T01:53:41.168Z,4.90
2023-05-21T01:55:14.118Z,5.22
2023-05-21T01:56:46.532Z,4.78
2023-05-21T01:58:19.307Z,5.05
2023-05-21T01:59:53.765Z,4.72
2023-05-21T02:01:27.482Z,5.10
2023-05-21T02:03:00.122Z,5.13
2023-05-21T02:04:32.317Z,4.57
2023-05-21T02:06:04.596Z,5.00
2023-05-21T02:07:37.936Z,5.18
2023-05-21T02:09:10.114Z,4.70
2023-05-21T02:10:42.576Z,5.10
2023-05-21T02:12:14.698Z,4.63
2023-05-21T02:13:46.970Z,4.88
2023-05-21T02:15:19.751Z,4.57
2023-05-21T02:16:53.053Z,4.70
2023-05-21T02:18:26.780Z,4.63
2023-05-21T02:19:59.294Z,5.78
2023-05-21T02:21:31.627Z,5.20
2023-05-21T02:23:03.776Z,4.70
2023-05-21T02:24:36.077Z,6.43
2023-05-21T02:26:08.195Z,5.20
2023-05-21T02:27:41.216Z,4.85
2023-05-21T02:29:13.354Z,5.20
2023-05-21T02:30:55.212Z,4.57
2023-05-21T02:32:27.516Z,4.60
2023-05-21T02:33:59.658Z,4.45
2023-05-21T02:35:32.698Z,4.43
2023-05-21T02:37:07.868Z,4.43
2023-05-21T02:38:44.057Z,4.10
2023-05-21T02:40:16.432Z,4.18
2023-05-21T02:41:48.524Z,4.55
2023-05-21T02:43:20.905Z,4.10
2023-05-21T02:44:53.328Z,4.25
2023-05-21T02:46:25.640Z,4.40
2023-05-21T02:47:57.870Z,4.57
2023-05-21T02:49:30.068Z,5.32
2023-05-21T02:51:02.386Z,4.80
2023-05-21T02:52:34.696Z,4.90
2023-05-21T02:54:07.213Z,5.05
2023-05-21T02:55:39.498Z,4.47
2023-05-21T02:57:11.917Z,4.75
2023-05-21T02:58:44.126Z,5.00
2023-05-21T03:02:02.103Z,4.88
2023-05-21T03:03:34.385Z,4.77
2023-05-21T03:05:09.443Z,4.53
2023-05-21T03:06:41.639Z,4.97
2023-05-21T03:08:13.841Z,5.07
2023-05-21T03:09:46.243Z,5.32
2023-05-21T03:11:20.294Z,4.60
2023-05-21T03:12:53.941Z,5.10
2023-05-21T03:14:26.113Z,4.55
2023-05-21T03:15:58.280Z,5.50
2023-05-21T03:17:30.448Z,5.18
2023-05-21T03:19:02.850Z,5.00
2023-05-21T03:20:35.174Z,4.70
2023-05-21T03:22:07.708Z,5.32
2023-05-21T03:23:42.203Z,5.20
2023-05-21T03:25:14.418Z,5.25
2023-05-21T03:26:48.636Z,4.80
2023-05-21T03:28:20.911Z,5.05
2023-05-21T03:29:55.461Z,5.00
2023-05-21T03:31:28.062Z,4.85
2023-05-21T03:33:00.436Z,5.38
2023-05-21T03:34:34.779Z,5.00
2023-05-21T03:37:39.855Z,6.07
2023-05-21T03:39:12.020Z,5.35
2023-05-21T03:40:44.178Z,5.55
2023-05-21T03:42:16.447Z,5.15
2023-05-21T03:43:48.651Z,5.60
2023-05-21T03:45:20.906Z,5.00
2023-05-21T03:46:53.078Z,4.80
2023-05-21T03:48:25.201Z,5.00
2023-05-21T03:49:57.583Z,5.25
2023-05-21T03:51:30.941Z,4.82
2023-05-21T03:54:35.165Z,5.25
2023-05-21T03:56:07.591Z,4.95
2023-05-21T03:57:40.228Z,5.43
2023-05-21T03:59:12.365Z,5.18
2023-05-21T04:00:44.574Z,5.53
2023-05-21T04:02:16.752Z,5.28
2023-05-21T04:03:49.119Z,5.22
2023-05-21T04:05:21.700Z,5.07
2023-05-21T04:06:54.795Z,5.28
2023-05-21T04:08:27.407Z,5.60
2023-05-21T04:09:59.621Z,5.28
2023-05-21T04:11:31.868Z,5.57
2023-05-21T04:13:04.078Z,5.80
2023-05-21T04:14:37.988Z,5.78
2023-05-21T04:16:10.319Z,5.50
2023-05-21T04:17:42.543Z,5.60
2023-05-21T04:19:14.825Z,5.70
2023-05-21T04:20:47.034Z,5.13
2023-05-21T04:22:19.184Z,5.68
2023-05-21T04:23:51.284Z,5.30
2023-05-21T04:25:23.727Z,5.03
2023-05-21T04:26:56.511Z,5.20
2023-05-21T04:28:29.180Z,5.32
2023-05-21T04:30:01.373Z,5.68
2023-05-21T04:31:33.675Z,5.38
2023-05-21T04:33:05.959Z,5.55
2023-05-21T04:34:38.262Z,5.80
2023-05-21T04:36:11.037Z,5.53
2023-05-21T04:37:46.257Z,6.28
2023-05-21T04:39:18.372Z,5.60
2023-05-21T04:40:51.374Z,6.20
2023-05-21T04:42:24.650Z,6.13
2023-05-21T04:43:56.851Z,5.72
2023-05-21T04:45:29.857Z,6.10
2023-05-21T04:47:02.683Z,6.20
2023-05-21T04:48:34.997Z,6.07
2023-05-21T04:51:39.016Z,6.25
2023-05-21T04:53:11.882Z,6.25
2023-05-21T04:54:48.354Z,5.85
2023-05-21T04:56:22.266Z,6.20
2023-05-21T04:57:54.458Z,6.47
2023-05-21T04:59:26.656Z,5.50
2023-05-21T05:00:58.915Z,6.32
2023-05-21T05:02:31.133Z,6.00
2023-05-21T05:04:03.340Z,5.57
2023-05-21T05:05:35.714Z,5.85
2023-05-21T05:07:08.087Z,6.27
2023-05-21T05:08:40.244Z,5.93
2023-05-21T05:10:12.605Z,6.22
2023-05-21T05:11:44.833Z,5.85
2023-05-21T05:13:17.123Z,5.70
2023-05-21T05:14:49.258Z,5.35
2023-05-21T05:16:26.076Z,5.53
2023-05-21T05:17:58.487Z,5.85
2023-05-21T05:19:30.795Z,5.30
2023-05-21T05:21:03.081Z,5.72
2023-05-21T05:22:35.184Z,5.43
2023-05-21T05:24:07.469Z,5.57
2023-05-21T05:25:39.817Z,5.60
2023-05-21T05:27:12.075Z,5.18
2023-05-21T05:28:44.262Z,5.13
2023-05-21T05:30:17.096Z,5.70
2023-05-21T05:31:49.317Z,5.68
2023-05-21T05:33:21.507Z,5.53
2023-05-21T05:34:53.875Z,5.40
2023-05-21T05:36:26.795Z,5.38
2023-05-21T05:37:59.005Z,5.85
2023-05-21T05:39:31.353Z,4.90
2023-05-21T05:41:03.631Z,5.30
2023-05-21T05:42:35.856Z,4.88
2023-05-21T05:44:10.747Z,5.38
2023-05-21T05:45:43.150Z,5.10
2023-05-21T05:47:15.359Z,5.88
2023-05-21T05:48:55.388Z,4.63
2023-05-21T05:50:28.112Z,4.82
2023-05-21T05:52:01.583Z,4.78
2023-05-21T05:53:33.886Z,4.72
2023-05-21T05:55:09.317Z,4.70
2023-05-21T05:56:41.487Z,5.40
2023-05-21T05:58:13.763Z,4.28
2023-05-21T05:59:45.989Z,4.35
2023-05-21T06:01:18.375Z,4.45
2023-05-21T06:02:50.648Z,5.20
2023-05-21T06:04:22.893Z,4.95
2023-05-21T06:05:55.373Z,4.95
2023-05-21T06:07:27.545Z,5.30
2023-05-21T06:09:02.166Z,5.40
2023-05-21T06:10:34.323Z,5.47
2023-05-21T06:12:07.760Z,5.38
2023-05-21T06:13:40.755Z,5.20
2023-05-21T06:15:15.283Z,5.32
2023-05-21T06:16:47.451Z,5.10
2023-05-21T06:18:19.610Z,5.32
2023-05-21T06:19:51.750Z,5.93
2023-05-21T06:21:23.951Z,5.68
2023-05-21T06:22:56.158Z,5.50
2023-05-21T06:24:28.304Z,5.60
2023-05-21T06:26:00.490Z,6.13
2023-05-21T06:27:32.631Z,5.55
2023-05-21T06:29:04.879Z,5.45
2023-05-21T06:30:36.999Z,5.40
2023-05-21T06:32:09.614Z,5.05
2023-05-21T06:33:41.963Z,5.78
2023-05-21T06:35:14.216Z,5.70
2023-05-21T06:36:46.405Z,5.82
2023-05-21T06:38:18.598Z,6.07
2023-05-21T06:39:51.058Z,5.97
2023-05-21T06:41:23.570Z,6.10
2023-05-21T06:42:56.812Z,6.33
2023-05-21T06:44:29.074Z,6.10
2023-05-21T06:46:01.956Z,5.75
2023-05-21T06:47:34.214Z,6.18
2023-05-21T06:49:07.571Z,6.57
2023-05-21T06:52:11.944Z,7.40
2023-05-21T06:53:44.122Z,7.55
2023-05-21T06:55:16.305Z,6.75
2023-05-21T06:56:48.566Z,7.25
2023-05-21T06:58:21.969Z,7.35
2023-05-21T07:01:26.722Z,6.88
2023-05-21T07:02:59.003Z,6.45
2023-05-21T07:04:31.171Z,7.30
2023-05-21T07:06:03.357Z,6.93
2023-05-21T07:07:35.823Z,6.97
2023-05-21T07:09:09.489Z,7.20
2023-05-21T07:10:42.798Z,8.02
2023-05-21T07:13:47.097Z,8.27
2023-05-21T07:15:19.269Z,8.30
2023-05-21T07:16:51.385Z,9.30
2023-05-21T07:19:55.488Z,7.70
2023-05-21T07:21:27.815Z,7.47
2023-05-21T07:23:00.054Z,7.15
2023-05-21T07:24:32.234Z,7.05
2023-05-21T07:26:04.389Z,7.55
2023-05-21T07:27:36.670Z,7.88
2023-05-21T07:29:08.884Z,8.45
2023-05-21T07:30:41.079Z,7.30
2023-05-21T07:32:13.296Z,8.65
2023-05-21T07:33:45.600Z,7.75
2023-05-21T07:35:17.864Z,8.43
2023-05-21T07:36:50.010Z,6.80
2023-05-21T07:38:25.164Z,7.40
2023-05-21T07:39:59.138Z,7.72
2023-05-21T07:41:31.527Z,7.47
2023-05-21T07:43:03.630Z,6.80
2023-05-21T07:44:36.006Z,7.07
2023-05-21T07:46:08.228Z,6.77
2023-05-21T07:47:40.439Z,7.65
2023-05-21T07:49:17.111Z,7.40
2023-05-21T07:50:50.224Z,7.20
2023-05-21T07:52:22.612Z,6.65
2023-05-21T07:53:55.356Z,7.47
2023-05-21T07:55:27.845Z,6.70
2023-05-21T07:57:00.029Z,7.82
2023-05-21T07:58:32.936Z,7.93
2023-05-21T08:00:08.812Z,7.05
2023-05-21T08:01:41.575Z,7.35
2023-05-21T08:03:17.697Z,7.22
2023-05-21T08:04:50.116Z,7.40
2023-05-21T08:06:25.297Z,7.13
2023-05-21T08:07:57.600Z,7.38
2023-05-21T08:09:32.830Z,7.57
2023-05-21T08:11:05.113Z,6.97
2023-05-21T08:12:37.279Z,6.97
2023-05-21T08:14:10.438Z,7.13
2023-05-21T08:15:42.790Z,6.97
2023-05-21T08:17:15.026Z,7.28
2023-05-21T08:18:47.380Z,7.30
2023-05-21T08:20:20.935Z,6.57
2023-05-21T08:21:53.263Z,7.40
2023-05-21T08:23:25.681Z,7.20
2023-05-21T08:24:57.829Z,7.67
2023-05-21T08:26:30.042Z,7.80
2023-05-21T08:28:02.259Z,7.53
2023-05-21T08:29:34.873Z,7.35
2023-05-21T08:31:07.155Z,7.30
2023-05-21T08:32:39.451Z,7.30
2023-05-21T08:34:11.709Z,7.15
2023-05-21T08:35:43.916Z,7.50
2023-05-21T08:37:16.181Z,7.07
2023-05-21T08:38:48.461Z,7.70
2023-05-21T08:40:20.753Z,6.43
2023-05-21T08:41:58.491Z,6.75
2023-05-21T08:43:30.705Z,6.93
2023-05-21T08:45:07.501Z,7.50
2023-05-21T08:46:41.805Z,6.75
2023-05-21T08:48:17.729Z,7.45
2023-05-21T08:49:50.889Z,7.40
2023-05-21T08:51:23.120Z,7.30
2023-05-21T08:52:55.864Z,6.28
2023-05-21T08:54:28.525Z,6.53
2023-05-21T08:56:00.797Z,7.38
2023-05-21T08:57:33.326Z,6.53
2023-05-21T08:59:05.493Z,7.22
2023-05-21T09:00:40.391Z,6.88
2023-05-21T09:02:14.143Z,7.75
2023-05-21T09:03:46.676Z,7.00
2023-05-21T09:05:19.049Z,6.95
2023-05-21T09:06:52.296Z,7.20
2023-05-21T09:10:11.248Z,6.47
2023-05-21T09:11:44.128Z,6.80
2023-05-21T09:13:18.085Z,6.68
2023-05-21T09:14:50.368Z,6.50
2023-05-21T09:16:22.587Z,6.47
2023-05-21T09:17:54.818Z,7.07
2023-05-21T09:19:27.240Z,7.45
2023-05-21T09:21:00.386Z,6.97
2023-05-21T09:22:32.615Z,6.05
2023-05-21T09:24:04.987Z,6.38
2023-05-21T09:25:38.818Z,6.10
2023-05-21T09:27:11.332Z,6.05
2023-05-21T09:28:43.863Z,6.77
2023-05-21T09:30:25.311Z,6.47
2023-05-21T09:31:59.959Z,6.28
2023-05-21T09:33:32.177Z,6.25
2023-05-21T09:35:09.979Z,6.05
2023-05-21T09:36:42.271Z,6.15
2023-05-21T09:38:14.628Z,6.85
2023-05-21T09:39:48.263Z,6.67
2023-05-21T09:41:22.422Z,6.53
2023-05-21T09:42:55.582Z,6.47
2023-05-21T09:44:27.832Z,6.18
2023-05-21T09:46:02.096Z,5.80
2023-05-21T09:47:34.657Z,5.30
2023-05-21T09:49:06.916Z,5.65
2023-05-21T09:50:40.614Z,5.65
2023-05-21T09:52:12.838Z,5.78
2023-05-21T09:53:55.495Z,5.60
2023-05-21T09:55:29.304Z,5.93
2023-05-21T09:57:03.246Z,5.55
2023-05-21T09:58:35.679Z,5.32
2023-05-21T10:27:04.407Z,5.10
2023-05-21T10:30:09.172Z,5.15
2023-05-21T10:31:44.264Z,4.88
2023-05-21T10:33:20.006Z,5.05
2023-05-21T10:34:53.928Z,5.03
2023-05-21T10:36:26.579Z,5.35
2023-05-21T10:37:59.689Z,5.00
2023-05-21T10:39:32.902Z,4.55
2023-05-21T10:42:52.925Z,4.78
2023-05-21T10:44:41.386Z,4.85
2023-05-21T10:46:16.168Z,4.40
2023-05-21T10:47:59.250Z,4.20
2023-05-21T10:49:43.356Z,4.43
2023-05-21T10:51:24.929Z,4.38
2023-05-21T10:53:15.555Z,5.10
2023-05-21T10:55:06.632Z,5.00
2023-05-21T10:57:17.962Z,5.15
2023-05-21T10:59:30.433Z,4.97
2023-05-21T11:01:03.176Z,5.00
2023-05-21T11:02:35.537Z,4.90
2023-05-21T11:04:08.067Z,5.00
2023-05-21T11:05:41.963Z,4.72
2023-05-21T11:07:14.295Z,4.85
2023-05-21T11:08:48.491Z,5.10
2023-05-21T11:10:41.200Z,5.45
2023-05-21T11:12:14.153Z,5.25
2023-05-21T11:13:49.797Z,4.53
2023-05-21T11:15:22.148Z,5.07
2023-05-21T11:16:55.131Z,4.93
2023-05-21T11:18:36.165Z,5.05
2023-05-21T11:20:14.681Z,5.10
2023-05-21T11:21:55.906Z,5.68
2023-05-21T11:23:51.178Z,5.07
2023-05-21T11:27:02.172Z,5.00
2023-05-21T11:28:34.943Z,4.70
2023-05-21T11:30:10.854Z,4.90
2023-05-21T11:31:51.700Z,5.55
2023-05-21T11:33:23.855Z,5.78
2023-05-21T11:35:01.088Z,4.90
2023-05-21T11:36:36.167Z,4.78
2023-05-21T11:38:09.897Z,4.07
2023-05-21T11:39:42.063Z,4.97
2023-05-21T11:41:20.666Z,4.72
2023-05-21T11:42:54.656Z,4.30
2023-05-21T11:44:42.995Z,4.50
2023-05-21T11:46:15.313Z,3.90
2023-05-21T11:47:49.579Z,4.10
2023-05-21T11:49:22.699Z,4.10
2023-05-21T11:50:54.988Z,3.95
2023-05-21T11:52:29.882Z,4.07
2023-05-21T11:55:43.957Z,3.97
2023-05-21T11:57:17.630Z,4.07
2023-05-21T11:58:49.834Z,4.10
2023-05-21T12:00:22.154Z,3.78
2023-05-21T12:01:55.665Z,4.03
2023-05-21T12:03:28.055Z,3.90
2023-05-21T12:05:02.974Z,4.47
2023-05-21T12:06:35.156Z,4.35
2023-05-21T12:08:09.176Z,3.78
2023-05-21T12:09:45.460Z,3.85
2023-05-21T12:11:17.719Z,3.97
2023-05-21T12:12:54.930Z,4.07
2023-05-21T12:14:28.600Z,4.00
2023-05-21T12:16:01.231Z,4.25
2023-05-21T12:17:33.570Z,4.28
2023-05-21T12:19:06.719Z,4.50
2023-05-21T12:20:39.381Z,4.43
2023-05-21T12:22:11.527Z,3.92
2023-05-21T12:23:43.712Z,4.03
2023-05-21T12:25:19.784Z,4.40
2023-05-21T12:26:52.517Z,4.28
2023-05-21T12:28:25.133Z,4.00
2023-05-21T12:29:57.695Z,4.13
2023-05-21T12:31:31.518Z,3.70
2023-05-21T12:33:04.972Z,3.97
2023-05-21T12:34:50.966Z,4.05
2023-05-21T12:36:24.119Z,3.95
2023-05-21T12:39:30.641Z,3.80
2023-05-21T12:41:06.458Z,4.10
2023-05-21T12:42:40.526Z,3.65
2023-05-21T12:44:12.763Z,3.92
2023-05-21T12:45:44.989Z,3.92
2023-05-21T12:47:18.247Z,3.80
2023-05-21T12:50:24.158Z,4.10
2023-05-21T12:51:57.341Z,3.87
2023-05-21T12:55:10.795Z,4.18
2023-05-21T12:56:46.330Z,3.70
2023-05-21T12:59:57.092Z,4.25
2023-05-21T13:01:29.267Z,4.03
2023-05-21T13:03:02.356Z,4.23
2023-05-21T13:04:37.072Z,4.13
2023-05-21T13:06:09.589Z,3.97
2023-05-21T13:07:41.726Z,3.80
2023-05-21T13:09:14.007Z,3.90
2023-05-21T13:10:46.431Z,3.60
2023-05-21T13:12:18.576Z,3.95
2023-05-21T13:13:50.737Z,4.13
2023-05-21T13:15:23.029Z,4.22
2023-05-21T13:16:55.645Z,3.60
2023-05-21T13:18:27.945Z,3.70
2023-05-21T13:20:10.501Z,3.87
2023-05-21T13:21:42.832Z,3.92
2023-05-21T13:23:19.700Z,3.70
2023-05-21T13:24:51.807Z,3.95
2023-05-21T13:26:23.968Z,3.50
2023-05-21T13:27:56.582Z,3.90
2023-05-21T13:29:31.443Z,4.20
2023-05-21T13:31:03.667Z,4.00
2023-05-21T13:32:37.093Z,3.83
2023-05-21T13:34:09.337Z,4.00
2023-05-21T13:35:41.692Z,3.90
2023-05-21T13:37:14.065Z,3.83
2023-05-21T13:38:46.372Z,3.90
2023-05-21T13:40:18.935Z,3.90
2023-05-21T13:41:51.161Z,3.92
2023-05-21T13:43:23.375Z,3.87
2023-05-21T13:44:55.563Z,3.67
2023-05-21T13:46:27.935Z,3.83
2023-05-21T13:48:00.312Z,4.07
2023-05-21T13:49:34.253Z,4.00
2023-05-21T13:51:06.656Z,4.03
2023-05-21T13:52:39.452Z,4.15
2023-05-21T13:54:11.604Z,3.53
2023-05-21T13:55:43.737Z,4.15
2023-05-21T14:33:32.550Z,3.88
2023-05-21T14:35:05.396Z,3.83
2023-05-21T14:36:37.552Z,3.53
2023-05-21T14:38:09.911Z,3.88
2023-05-21T14:39:42.114Z,4.00
2023-05-21T14:41:14.223Z,3.53
2023-05-21T14:42:49.484Z,4.00
2023-05-21T14:44:21.639Z,4.10
2023-05-21T14:45:53.932Z,3.90
2023-05-21T14:47:26.286Z,4.13
2023-05-21T14:48:59.893Z,3.60
2023-05-21T14:50:32.234Z,4.22
2023-05-21T14:52:04.645Z,3.70
2023-05-21T14:53:36.891Z,3.65
2023-05-21T14:55:09.648Z,4.07
2023-05-21T14:56:41.867Z,4.28
2023-05-21T14:58:14.073Z,3.83
2023-05-21T14:59:46.313Z,4.10
2023-05-21T15:01:18.949Z,4.05
2023-05-21T15:02:51.308Z,4.20
2023-05-21T15:04:23.630Z,4.07
2023-05-21T15:05:55.909Z,4.15
2023-05-21T15:09:02.093Z,3.83
2023-05-21T15:10:34.231Z,3.63
2023-05-21T15:12:06.547Z,3.90
2023-05-21T15:13:38.971Z,4.35
2023-05-21T15:15:12.843Z,4.40
2023-05-21T15:16:45.411Z,4.60
2023-05-21T15:18:17.906Z,4.68
2023-05-21T15:19:50.101Z,4.82
2023-05-21T15:21:22.497Z,4.80
2023-05-21T15:23:05.042Z,4.25
2023-05-21T15:24:47.023Z,4.97
2023-05-21T15:26:19.365Z,4.53
2023-05-21T15:27:51.640Z,4.53
2023-05-21T15:29:24.290Z,4.63
2023-05-21T15:30:56.611Z,4.80
2023-05-21T15:32:28.853Z,4.70
2023-05-21T15:34:01.350Z,4.30
2023-05-21T15:35:33.987Z,4.38
2023-05-21T15:37:06.535Z,4.45
2023-05-21T15:38:38.674Z,4.30
2023-05-21T15:40:11.088Z,4.65
2023-05-21T15:41:43.206Z,4.25
2023-05-21T15:43:15.549Z,4.55
2023-05-21T15:44:47.740Z,4.37
2023-05-21T15:46:20.105Z,4.07
2023-05-21T15:47:52.599Z,4.20
2023-05-21T15:49:24.866Z,4.35
2023-05-21T15:50:57.114Z,4.68
2023-05-21T15:52:29.449Z,4.20
2023-05-21T15:54:01.713Z,4.80
2023-05-21T15:55:34.222Z,4.65
2023-05-21T15:57:06.689Z,4.30
2023-05-21T15:58:38.961Z,4.93
2023-05-21T16:00:12.009Z,4.30
2023-05-21T16:01:44.290Z,4.53
2023-05-21T16:03:16.982Z,4.82
2023-05-21T16:04:51.972Z,4.30
2023-05-21T16:06:28.379Z,4.32
2023-05-21T16:08:00.876Z,4.47
2023-05-21T16:09:33.145Z,4.47
2023-05-21T16:11:05.446Z,4.55
2023-05-21T16:12:37.590Z,4.57
2023-05-21T16:14:09.877Z,4.88
2023-05-21T16:15:42.093Z,4.82
2023-05-21T16:17:14.494Z,4.75
2023-05-21T16:18:47.009Z,4.70
2023-05-21T16:20:19.301Z,3.97
2023-05-21T16:21:51.618Z,4.55
2023-05-21T16:23:24.271Z,4.50
2023-05-21T16:24:56.765Z,5.07
2023-05-21T16:26:29.168Z,4.75
2023-05-21T16:28:01.392Z,4.70
2023-05-21T16:29:33.590Z,4.63
2023-05-21T16:31:06.009Z,4.55
2023-05-21T16:32:39.993Z,4.43
2023-05-21T16:34:12.290Z,4.85
2023-05-21T16:37:24.549Z,4.95
2023-05-21T16:38:56.947Z,4.75
2023-05-21T16:40:29.085Z,4.63
2023-05-21T16:42:02.137Z,4.70
2023-05-21T16:43:34.273Z,4.55
2023-05-21T16:45:07.337Z,4.65
2023-05-21T16:46:41.030Z,4.80
2023-05-21T16:48:14.044Z,4.45
2023-05-21T16:49:46.662Z,4.97
2023-05-21T16:51:18.940Z,4.45
2023-05-21T16:52:51.120Z,4.80
2023-05-21T16:54:23.307Z,5.07
2023-05-21T16:55:55.504Z,5.03
2023-05-21T16:57:27.687Z,4.68
2023-05-21T16:58:59.854Z,4.63
2023-05-21T17:00:32.047Z,4.05
2023-05-21T17:02:04.525Z,4.60
2023-05-21T17:03:36.973Z,4.85
2023-05-21T17:05:13.636Z,4.50
2023-05-21T17:06:45.803Z,4.68
2023-05-21T17:08:18.105Z,4.25
2023-05-21T17:09:50.306Z,4.07
2023-05-21T17:11:22.628Z,4.53
2023-05-21T17:12:54.977Z,4.43
2023-05-21T17:14:34.347Z,3.80
2023-05-21T17:16:07.779Z,3.83
2023-05-21T17:17:40.025Z,3.92
2023-05-21T17:19:12.315Z,3.88
2023-05-21T17:20:44.670Z,3.77
2023-05-21T17:22:16.926Z,3.70
2023-05-21T17:23:49.130Z,4.10
2023-05-21T17:25:21.421Z,4.00
2023-05-21T17:26:54.212Z,4.35
2023-05-21T17:28:26.359Z,4.00
2023-05-21T17:29:58.572Z,4.07
2023-05-21T17:31:32.674Z,3.90
2023-05-21T17:33:05.001Z,3.60
2023-05-21T17:34:37.599Z,3.60
2023-05-21T17:36:09.908Z,3.92
2023-05-21T17:37:42.123Z,4.07
2023-05-21T17:39:14.387Z,3.90
2023-05-21T17:40:46.667Z,4.20
2023-05-21T17:42:19.186Z,4.38
2023-05-21T17:43:51.480Z,3.88
2023-05-21T17:45:23.814Z,4.30
2023-05-21T17:46:56.997Z,4.00
2023-05-21T17:48:29.268Z,4.00
2023-05-21T17:50:01.451Z,4.53
2023-05-21T17:51:33.695Z,4.28
2023-05-21T17:53:08.998Z,4.15
2023-05-21T17:54:41.663Z,4.47
2023-05-21T17:56:13.893Z,4.20
2023-05-21T17:57:46.461Z,4.25
2023-05-21T17:59:18.633Z,4.25
2023-05-21T18:00:50.910Z,4.28
2023-05-21T18:02:23.989Z,3.92
2023-05-21T18:03:56.351Z,4.30
2023-05-21T18:05:28.529Z,4.53
2023-05-21T18:07:00.911Z,4.43
2023-05-21T18:08:33.043Z,4.40
2023-05-21T18:10:06.274Z,4.32
2023-05-21T18:11:38.478Z,4.45
2023-05-21T18:13:10.776Z,4.60
2023-05-21T18:14:42.968Z,4.63
2023-05-21T18:16:15.226Z,4.47
2023-05-21T18:17:47.714Z,4.18
2023-05-21T18:19:19.962Z,4.15
2023-05-21T18:20:55.945Z,4.35
2023-05-21T18:22:28.073Z,4.32
2023-05-21T18:24:00.321Z,4.45
2023-05-21T18:25:32.570Z,4.80
2023-05-21T18:27:04.912Z,4.82
2023-05-21T18:28:37.125Z,5.00
2023-05-21T18:30:09.775Z,5.15
2023-05-21T18:31:44.694Z,5.47
2023-05-21T18:33:17.183Z,4.53
2023-05-21T18:34:50.195Z,4.75
2023-05-21T18:36:22.875Z,5.25
2023-05-21T18:37:55.107Z,4.65
2023-05-21T18:39:28.407Z,4.82
2023-05-21T18:42:32.748Z,5.65
2023-05-21T18:44:06.383Z,5.50
2023-05-21T18:45:38.566Z,5.65
2023-05-21T18:47:16.159Z,5.38
2023-05-21T18:48:49.189Z,4.57
2023-05-21T18:50:21.394Z,4.53
2023-05-21T18:51:53.947Z,4.40
2023-05-21T18:53:26.095Z,4.93
2023-05-21T18:54:58.346Z,4.88
2023-05-21T18:56:30.494Z,4.65
2023-05-21T18:58:02.752Z,4.10
2023-05-21T18:59:35.057Z,4.15
2023-05-21T19:01:07.664Z,4.82
2023-05-21T19:02:40.636Z,5.28
2023-05-21T19:04:13.182Z,4.53
2023-05-21T19:05:45.550Z,4.70
2023-05-21T19:07:17.758Z,5.17
2023-05-21T19:08:49.871Z,4.10
2023-05-21T19:10:22.313Z,4.32
2023-05-21T19:11:54.563Z,4.63
2023-05-21T19:13:26.760Z,4.60
2023-05-21T19:14:58.934Z,4.60
2023-05-21T19:16:31.413Z,4.70
2023-05-21T19:18:04.087Z,4.72
2023-05-21T19:19:36.430Z,4.50
2023-05-21T19:21:08.656Z,4.32
2023-05-21T19:22:41.045Z,4.93
2023-05-21T19:24:13.249Z,4.10
2023-05-21T19:25:45.453Z,4.40
2023-05-21T19:27:18.556Z,4.25
2023-05-21T19:28:54.919Z,4.28
2023-05-21T19:30:27.398Z,4.72
2023-05-21T19:31:59.629Z,4.60
2023-05-21T19:33:31.964Z,4.70
2023-05-21T19:35:06.006Z,4.67
2023-05-21T19:36:51.506Z,5.30
2023-05-21T19:38:24.982Z,4.65
2023-05-21T19:39:57.302Z,5.07
2023-05-21T19:41:29.590Z,4.78
2023-05-21T19:43:03.145Z,4.97
2023-05-21T19:44:35.729Z,4.32
2023-05-21T19:46:08.021Z,4.80
2023-05-21T19:47:41.465Z,4.45
2023-05-21T19:50:49.781Z,4.73
2023-05-21T19:52:21.916Z,4.57
2023-05-21T19:53:54.106Z,4.55
2023-05-21T19:55:26.941Z,4.20
2023-05-21T19:56:59.184Z,5.18
2023-05-21T19:58:32.048Z,4.88
2023-05-21T20:00:05.757Z,4.95
2023-05-21T20:01:39.786Z,4.55
2023-05-21T20:03:13.334Z,4.50
2023-05-21T20:04:45.813Z,5.38
2023-05-21T20:06:19.330Z,4.82
2023-05-21T20:07:51.608Z,4.82
2023-05-21T20:09:23.855Z,4.55
2023-05-21T20:10:56.373Z,4.65
2023-05-21T20:12:28.552Z,5.28
2023-05-21T20:14:02.493Z,5.03
2023-05-21T20:15:34.920Z,4.65
2023-05-21T20:17:07.471Z,4.83
2023-05-21T20:18:39.761Z,4.80
2023-05-21T20:20:12.876Z,4.88
2023-05-21T20:21:45.179Z,5.20
2023-05-21T20:23:17.367Z,4.97
2023-05-21T20:24:49.558Z,5.47
2023-05-21T20:26:22.399Z,5.10
2023-05-21T20:27:54.569Z,5.20
2023-05-21T20:29:26.925Z,5.13
2023-05-21T20:30:59.125Z,5.30
2023-05-21T20:32:31.458Z,5.65
2023-05-21T20:34:08.078Z,4.88
2023-05-21T20:35:40.234Z,5.18
2023-05-21T20:37:12.922Z,5.07
2023-05-21T20:38:46.011Z,5.07
2023-05-21T20:40:19.325Z,4.93
2023-05-21T20:41:51.484Z,5.25
2023-05-21T20:43:25.960Z,4.72
2023-05-21T20:45:02.145Z,4.60
2023-05-21T20:46:38.913Z,4.97
2023-05-21T20:48:12.470Z,4.93
2023-05-21T20:51:18.245Z,4.97
2023-05-21T20:52:50.427Z,5.05
2023-05-21T20:54:22.563Z,4.88
2023-05-21T20:55:55.089Z,4.90
2023-05-21T20:57:28.744Z,5.40
2023-05-21T20:59:01.015Z,5.30
2023-05-21T21:00:33.732Z,4.65
2023-05-21T21:02:12.727Z,4.82
2023-05-21T21:05:17.736Z,5.13
2023-05-21T21:06:50.719Z,5.63
2023-05-21T21:08:22.813Z,5.10
2023-05-21T21:09:57.461Z,5.30
2023-05-21T21:11:29.737Z,4.43
2023-05-21T21:13:02.350Z,5.13
2023-05-21T21:14:34.435Z,4.80
2023-05-21T21:16:07.344Z,4.90
2023-05-21T21:17:39.584Z,5.00
2023-05-21T21:19:11.872Z,5.38
2023-05-21T21:20:48.288Z,5.10
2023-05-21T21:22:20.398Z,5.45
2023-05-21T21:23:52.543Z,5.72
2023-05-21T21:25:24.986Z,5.30
2023-05-21T21:26:57.115Z,5.40
2023-05-21T21:28:29.299Z,5.53
2023-05-21T21:30:01.488Z,4.75
2023-05-21T21:31:33.880Z,5.13
2023-05-21T21:34:54.462Z,5.70
2023-05-21T21:36:29.153Z,5.30
2023-05-21T21:38:01.880Z,5.20
2023-05-21T21:39:34.040Z,5.78
2023-05-21T21:41:07.754Z,5.43
2023-05-21T21:42:39.981Z,5.50
2023-05-21T21:44:12.147Z,5.47
2023-05-21T21:45:44.407Z,5.50
2023-05-21T21:47:16.663Z,5.38
2023-05-21T21:48:48.918Z,5.45
2023-05-21T21:50:21.103Z,5.72
2023-05-21T21:51:58.113Z,4.93
2023-05-21T21:53:30.320Z,5.25
2023-05-21T21:55:02.501Z,5.25
2023-05-21T21:56:34.601Z,5.13
2023-05-21T21:58:07.473Z,4.75
2023-05-21T21:59:39.922Z,4.90
2023-05-21T22:01:12.172Z,5.07
2023-05-21T22:02:46.872Z,5.30
2023-05-21T22:04:19.084Z,5.40
2023-05-21T22:05:52.039Z,5.47
2023-05-21T22:07:24.152Z,5.25
2023-05-21T22:08:56.686Z,5.18
2023-05-21T22:10:28.918Z,5.05
2023-05-21T22:12:01.616Z,5.65
2023-05-21T22:13:34.736Z,5.78
2023-05-21T22:15:08.335Z,5.63
2023-05-21T22:16:43.724Z,5.32
2023-05-21T22:18:22.450Z,5.00
2023-05-21T22:20:01.437Z,5.85
2023-05-21T22:21:33.573Z,5.93
2023-05-21T22:23:06.626Z,5.38
2023-05-21T22:24:41.711Z,5.35
2023-05-21T22:26:13.952Z,5.65
2023-05-21T22:27:46.061Z,5.43
2023-05-21T22:29:18.264Z,5.47